createdAt,value
2022-10-15T00:05:10.743Z,135.01
2022-10-15T00:10:42.456Z,135.34
2022-10-15T00:16:14.315Z,136.00
2022-10-15T00:21:46.407Z,136.22
2022-10-15T00:27:18.141Z,135.67
2022-10-15T00:32:49.753Z,134.90
2022-10-15T00:38:21.475Z,136.11
2022-10-15T00:46:15.193Z,136.34
2022-10-15T00:51:46.837Z,136.90
2022-10-15T00:57:18.550Z,135.01
2022-10-15T01:13:48.921Z,136.34
2022-10-15T01:19:20.275Z,133.93
2022-10-15T01:24:52.370Z,132.65
2022-10-15T01:30:24.114Z,133.18
2022-10-15T01:35:56.010Z,132.13
2022-10-15T01:41:27.868Z,132.13
2022-10-15T01:46:59.699Z,132.34
2022-10-15T01:58:03.482Z,132.23
2022-10-15T02:03:35.351Z,133.07
2022-10-15T02:11:29.181Z,129.76
2022-10-15T02:17:01.286Z,134.25
2022-10-15T02:22:34.468Z,134.47
2022-10-15T02:28:06.214Z,133.29
2022-10-15T02:33:37.933Z,133.39
2022-10-15T02:39:09.611Z,133.61
2022-10-15T02:44:41.519Z,132.86
2022-10-15T02:50:13.211Z,133.50
2022-10-15T02:55:45.016Z,133.50
2022-10-15T03:01:16.967Z,131.71
2022-10-15T03:06:48.619Z,132.02
2022-10-15T03:17:52.275Z,131.19
2022-10-15T03:23:24.500Z,131.50
2022-10-15T03:28:56.139Z,130.78
2022-10-15T03:31:19.376Z,128.56
2022-10-15T03:36:51.141Z,132.44
2022-10-15T03:42:23.152Z,131.92
2022-10-15T03:47:54.904Z,131.60
2022-10-15T03:53:26.619Z,130.78
2022-10-15T03:58:58.574Z,129.86
2022-10-15T04:04:30.039Z,129.36
2022-10-15T04:10:02.044Z,127.97
2022-10-15T04:15:33.819Z,127.87
2022-10-15T04:21:05.566Z,128.17
2022-10-15T04:26:37.511Z,127.78
2022-10-15T04:32:09.257Z,126.90
2022-10-15T04:37:41.059Z,126.71
2022-10-15T04:43:13.269Z,126.13
2022-10-15T04:48:44.894Z,126.42
2022-10-15T04:54:17.025Z,125.56
2022-10-15T04:59:51.445Z,124.91
2022-10-15T05:05:20.337Z,124.81
2022-10-15T05:10:52.107Z,125.38
2022-10-15T05:16:24.022Z,124.72
2022-10-15T05:21:55.630Z,124.72
2022-10-15T05:27:27.515Z,124.81
2022-10-15T05:32:59.501Z,124.07
2022-10-15T05:38:31.247Z,124.16
2022-10-15T05:44:03.180Z,123.79
2022-10-15T05:49:34.799Z,123.61
2022-10-15T05:55:06.494Z,123.25
2022-10-15T06:00:38.236Z,123.34
2022-10-15T06:06:09.778Z,122.97
2022-10-15T06:11:41.709Z,122.97
2022-10-15T06:17:13.441Z,122.88
2022-10-15T06:22:45.406Z,123.06
2022-10-15T06:28:17.040Z,123.06
2022-10-15T06:33:48.797Z,123.06
2022-10-15T06:39:20.421Z,123.06
2022-10-15T06:44:52.419Z,122.70
2022-10-15T06:50:24.391Z,121.99
2022-10-15T06:55:56.221Z,122.16
2022-10-15T07:01:28.044Z,121.54
2022-10-15T07:06:59.666Z,121.10
2022-10-15T07:12:31.753Z,120.92
2022-10-15T07:18:03.413Z,120.66
2022-10-15T07:23:35.020Z,121.36
2022-10-15T07:29:06.618Z,121.54
2022-10-15T07:34:38.320Z,121.72
2022-10-15T07:40:10.276Z,121.01
2022-10-15T07:45:42.056Z,121.36
2022-10-15T07:51:13.863Z,121.63
2022-10-15T07:56:45.222Z,121.36
2022-10-15T08:02:16.998Z,120.66
2022-10-15T08:13:18.006Z,121.54
2022-10-15T08:18:49.732Z,120.92
2022-10-15T08:24:21.499Z,120.92
2022-10-15T08:29:53.206Z,121.10
2022-10-15T08:35:25.054Z,121.36
2022-10-15T08:40:56.742Z,121.19
2022-10-15T08:46:28.618Z,123.15
2022-10-15T08:52:00.298Z,122.61
2022-10-15T09:03:03.752Z,121.45
2022-10-15T09:08:36.017Z,122.43
2022-10-15T09:14:10.272Z,125.19
2022-10-15T09:36:19.834Z,132.13
2022-10-15T09:41:51.397Z,130.27
2022-10-15T09:47:23.378Z,126.61
2022-10-15T09:52:55.109Z,123.61
2022-10-15T09:58:26.911Z,123.61
2022-10-15T10:09:30.309Z,123.89
2022-10-15T10:20:34.426Z,124.35
2022-10-15T10:26:06.069Z,123.70
2022-10-15T10:31:37.918Z,122.25
2022-10-15T10:37:09.707Z,121.72
2022-10-15T10:42:41.356Z,123.15
2022-10-15T10:48:13.184Z,122.88
2022-10-15T10:53:44.985Z,121.99
2022-10-15T10:59:16.902Z,121.54
2022-10-15T11:07:09.089Z,123.70
2022-10-15T11:12:40.966Z,123.34
2022-10-15T11:18:13.023Z,120.05
2022-10-15T11:23:45.031Z,117.93
2022-10-15T11:29:16.732Z,116.45
2022-10-15T11:34:48.622Z,115.48
2022-10-15T11:40:20.511Z,114.85
2022-10-15T11:45:52.283Z,116.05
2022-10-15T11:51:23.590Z,114.53
2022-10-15T11:56:55.211Z,115.25
2022-10-15T12:02:27.061Z,114.85
2022-10-15T12:07:58.976Z,114.53
2022-10-15T12:13:30.355Z,112.91
2022-10-15T12:19:02.508Z,113.21
2022-10-15T12:24:34.415Z,114.06
2022-10-15T12:30:06.267Z,115.01
2022-10-15T12:35:38.273Z,115.17
2022-10-15T12:41:09.821Z,115.48
2022-10-15T12:46:41.508Z,115.48
2022-10-15T12:52:13.562Z,115.56
2022-10-15T12:57:45.080Z,116.61
2022-10-15T13:03:16.764Z,116.78
2022-10-15T13:08:48.284Z,116.70
2022-10-15T13:14:19.910Z,115.48
2022-10-15T13:19:51.321Z,115.81
2022-10-15T13:25:23.413Z,115.01
2022-10-15T13:30:56.349Z,114.53
2022-10-15T13:36:28.265Z,114.61
2022-10-15T13:41:59.902Z,114.77
2022-10-15T13:47:33.492Z,115.56
2022-10-15T13:53:05.172Z,115.64
2022-10-15T13:58:36.754Z,115.81
2022-10-15T14:04:08.864Z,114.30
2022-10-15T14:09:40.626Z,114.53
2022-10-15T14:15:17.821Z,114.22
2022-10-15T14:20:51.433Z,114.85
2022-10-15T14:26:22.852Z,115.81
2022-10-15T14:31:54.551Z,115.32
2022-10-15T14:37:26.327Z,115.89
2022-10-15T14:42:58.149Z,115.09
2022-10-15T14:48:29.756Z,115.81
2022-10-15T14:54:01.653Z,114.77
2022-10-15T14:59:33.644Z,113.44
2022-10-15T15:05:05.682Z,113.06
2022-10-15T15:10:38.372Z,113.14
2022-10-15T15:16:09.940Z,113.44
2022-10-15T15:21:41.751Z,115.56
2022-10-15T15:27:13.399Z,115.01
2022-10-15T15:32:45.286Z,115.09
2022-10-15T15:38:17.117Z,115.40
2022-10-15T15:43:48.804Z,115.56
2022-10-15T15:49:20.611Z,116.53
2022-10-15T15:54:52.354Z,116.29
2022-10-15T16:00:24.103Z,115.97
2022-10-15T16:05:56.060Z,116.13
2022-10-15T16:11:27.762Z,115.40
2022-10-15T16:16:59.876Z,115.64
2022-10-15T16:22:31.717Z,115.97
2022-10-15T16:28:03.368Z,115.01
2022-10-15T16:33:35.158Z,114.69
2022-10-15T16:39:06.828Z,114.85
2022-10-15T16:44:38.837Z,115.89
2022-10-15T16:50:10.754Z,115.32
2022-10-15T16:55:42.440Z,116.21
2022-10-15T17:01:13.972Z,117.27
2022-10-15T17:12:15.349Z,120.14
2022-10-15T17:17:47.222Z,120.75
2022-10-15T17:23:18.964Z,121.45
2022-10-15T17:28:50.828Z,123.15
2022-10-15T17:34:22.722Z,123.52
2022-10-15T17:39:54.754Z,125.28
2022-10-15T17:45:26.355Z,125.66
2022-10-15T17:50:58.140Z,125.66
2022-10-15T18:02:00.351Z,130.57
2022-10-15T18:07:31.111Z,131.60
2022-10-15T18:13:03.742Z,132.55
2022-10-15T18:18:35.383Z,132.86
2022-10-15T18:24:07.241Z,134.14
2022-10-15T18:29:39.132Z,134.47
2022-10-15T18:35:11.137Z,135.78
2022-10-15T18:40:42.802Z,135.67
2022-10-15T18:46:14.531Z,136.11
2022-10-15T18:51:46.884Z,136.78
2022-10-15T18:57:18.970Z,134.79
2022-10-15T19:02:50.759Z,135.67
2022-10-15T19:08:22.435Z,138.26
2022-10-15T19:13:54.006Z,137.46
2022-10-15T19:19:25.650Z,137.57
2022-10-15T19:24:57.435Z,138.60
2022-10-15T19:30:29.357Z,139.53
2022-10-15T19:36:00.943Z,140.35
2022-10-15T19:41:32.732Z,140.94
2022-10-15T19:47:04.665Z,142.51
2022-10-15T19:52:36.546Z,142.14
2022-10-15T19:58:08.001Z,143.49
2022-10-15T20:03:39.686Z,143.86
2022-10-15T20:09:11.580Z,144.23
2022-10-15T20:14:43.282Z,144.98
2022-10-15T20:20:15.282Z,145.11
2022-10-15T20:25:48.190Z,146.64
2022-10-15T20:31:20.228Z,145.36
2022-10-15T20:36:51.870Z,145.74
2022-10-15T20:53:29.122Z,147.42
2022-10-15T20:59:00.778Z,146.00
2022-10-15T21:10:02.204Z,147.16
2022-10-15T21:15:33.892Z,147.68
2022-10-15T21:26:38.601Z,148.33
2022-10-15T21:32:10.376Z,149.26
2022-10-15T21:37:42.019Z,148.46
2022-10-15T21:48:45.662Z,149.93
2022-10-15T21:54:17.326Z,150.34
2022-10-15T21:59:48.900Z,150.47
2022-10-15T22:05:20.810Z,151.15
2022-10-15T22:10:52.527Z,153.66
2022-10-15T22:16:24.437Z,153.66
2022-10-15T22:21:56.144Z,153.94
2022-10-15T22:27:27.966Z,152.96
2022-10-15T22:32:59.722Z,153.10
2022-10-15T22:38:31.485Z,153.80
2022-10-15T22:44:03.321Z,153.38
2022-10-15T22:49:35.323Z,153.52
2022-10-15T22:55:06.868Z,154.37
2022-10-15T23:00:38.618Z,154.66
2022-10-15T23:06:10.423Z,154.37
2022-10-15T23:11:42.066Z,154.23
2022-10-15T23:17:13.918Z,155.23
2022-10-15T23:22:45.878Z,154.94
2022-10-15T23:28:17.992Z,157.28
2022-10-15T23:33:49.888Z,158.93
2022-10-15T23:39:21.626Z,157.88
2022-10-15T23:44:53.272Z,156.54
2022-10-15T23:50:25.147Z,154.37
2022-10-15T23:55:57.171Z,154.37
